createdAt,value
2022-10-11T00:00:11.724Z,100941.38
2022-10-11T00:02:38.392Z,100938.59
2022-10-11T00:05:05.477Z,100941.09
2022-10-11T00:07:32.317Z,100946.69
2022-10-11T00:09:58.949Z,100947.66
2022-10-11T00:12:25.640Z,100952.97
2022-10-11T00:14:52.250Z,100956.63
2022-10-11T00:17:18.913Z,100955.66
2022-10-11T00:19:45.573Z,100968.53
2022-10-11T00:22:14.306Z,100966.41
2022-10-11T00:24:40.979Z,100967.38
2022-10-11T00:27:07.827Z,100966.59
2022-10-11T00:29:34.708Z,100972.78
2022-10-11T00:32:01.378Z,100980.63
2022-10-11T00:34:28.079Z,100976.47
2022-10-11T00:36:54.734Z,100981.00
2022-10-11T00:39:21.850Z,100988.44
2022-10-11T00:41:49.408Z,100980.31
2022-10-11T00:44:28.432Z,100994.91
2022-10-11T00:46:59.660Z,100998.31
2022-10-11T00:49:45.465Z,101005.66
2022-10-11T00:52:12.068Z,101001.47
2022-10-11T00:54:42.655Z,101009.00
2022-10-11T00:57:14.274Z,101003.69
2022-10-11T00:59:45.196Z,101014.59
2022-10-11T01:02:13.402Z,101005.69
2022-10-11T01:04:41.219Z,101003.78
2022-10-11T01:07:09.082Z,101003.78
2022-10-11T01:09:36.290Z,101004.84
2022-10-11T01:12:06.499Z,101008.13
2022-10-11T01:15:03.311Z,101011.81
2022-10-11T01:17:43.541Z,101017.41
2022-10-11T01:20:30.179Z,101019.59
2022-10-11T01:22:59.726Z,101017.94
2022-10-11T01:25:35.715Z,101023.34
2022-10-11T01:28:21.088Z,101020.75
2022-10-11T01:30:49.044Z,101033.13
2022-10-11T01:33:25.514Z,101029.88
2022-10-11T01:36:14.195Z,101033.38
2022-10-11T01:38:50.141Z,101032.59
2022-10-11T01:41:31.216Z,101038.00
2022-10-11T01:44:01.249Z,101047.78
2022-10-11T01:46:31.816Z,101042.19
2022-10-11T01:49:00.335Z,101047.78
2022-10-11T01:51:33.101Z,101054.59
2022-10-11T01:54:05.903Z,101049.09
2022-10-11T01:56:50.743Z,101049.88
2022-10-11T01:59:45.314Z,101050.22
2022-10-11T02:02:20.832Z,101060.34
2022-10-11T02:04:50.933Z,101057.91
2022-10-11T02:07:44.843Z,101050.94
2022-10-11T02:10:24.348Z,101059.53
2022-10-11T02:12:59.497Z,101063.53
2022-10-11T02:15:30.581Z,101063.38
2022-10-11T02:18:00.817Z,101054.88
2022-10-11T02:20:30.525Z,101058.81
2022-10-11T02:23:02.511Z,101066.25
2022-10-11T02:25:32.908Z,101066.31
2022-10-11T02:28:02.531Z,101070.75
2022-10-11T02:30:30.745Z,101072.25
2022-10-11T02:32:59.905Z,101077.31
2022-10-11T02:35:29.915Z,101078.34
2022-10-11T02:38:09.320Z,101078.16
2022-10-11T02:40:41.277Z,101084.72
2022-10-11T02:43:25.977Z,101080.44
2022-10-11T02:46:05.786Z,101078.94
2022-10-11T02:48:35.565Z,101087.31
2022-10-11T02:51:03.609Z,101093.34
2022-10-11T02:53:30.954Z,101090.72
2022-10-11T02:55:57.632Z,101086.69
2022-10-11T02:58:24.757Z,101092.13
2022-10-11T03:00:51.482Z,101084.78
2022-10-11T03:03:18.281Z,101085.66
2022-10-11T03:05:45.172Z,101088.63
2022-10-11T03:08:13.574Z,101091.63
2022-10-11T03:10:41.018Z,101090.84
2022-10-11T03:13:08.155Z,101087.41
2022-10-11T03:15:35.008Z,101089.88
2022-10-11T03:18:01.705Z,101089.88
2022-10-11T03:20:28.433Z,101093.38
2022-10-11T03:22:55.133Z,101101.84
2022-10-11T03:25:21.827Z,101111.16
2022-10-11T03:27:48.533Z,101106.22
2022-10-11T03:30:18.331Z,101115.50
2022-10-11T03:32:45.359Z,101124.56
2022-10-11T03:35:12.063Z,101113.56
2022-10-11T03:37:38.732Z,101112.25
2022-10-11T03:40:08.388Z,101112.88
2022-10-11T03:42:35.680Z,101116.63
2022-10-11T03:45:05.052Z,101130.38
2022-10-11T03:47:32.266Z,101129.09
2022-10-11T03:49:58.994Z,101137.19
2022-10-11T03:52:25.782Z,101149.13
2022-10-11T03:54:52.699Z,101145.47
2022-10-11T03:57:20.102Z,101160.63
2022-10-11T03:59:46.752Z,101161.44
2022-10-11T04:02:13.466Z,101158.72
2022-10-11T04:04:43.682Z,101162.94
2022-10-11T04:07:10.554Z,101160.50
2022-10-11T04:09:37.226Z,101157.53
2022-10-11T04:12:04.025Z,101164.84
2022-10-11T04:14:30.762Z,101162.16
2022-10-11T04:17:00.398Z,101155.78
2022-10-11T04:19:27.775Z,101151.34
2022-10-11T04:21:54.475Z,101155.84
2022-10-11T04:24:21.185Z,101160.13
2022-10-11T04:26:48.465Z,101166.31
2022-10-11T04:29:15.664Z,101171.09
2022-10-11T04:31:42.496Z,101176.69
2022-10-11T04:34:09.110Z,101166.31
2022-10-11T04:36:35.807Z,101169.38
2022-10-11T04:39:03.688Z,101180.06
2022-10-11T04:41:30.433Z,101185.66
2022-10-11T04:43:57.513Z,101178.81
2022-10-11T04:46:25.021Z,101180.56
2022-10-11T04:48:52.132Z,101184.50
2022-10-11T04:51:19.236Z,101181.31
2022-10-11T04:53:45.937Z,101195.31
2022-10-11T04:56:12.687Z,101195.59
2022-10-11T04:58:42.330Z,101202.63
2022-10-11T05:01:10.180Z,101203.59
2022-10-11T05:03:37.448Z,101207.34
2022-10-11T05:06:06.192Z,101208.25
2022-10-11T05:08:34.169Z,101215.66
2022-10-11T05:11:04.063Z,101221.28
2022-10-11T05:13:31.818Z,101231.28
2022-10-11T05:15:58.525Z,101231.13
2022-10-11T05:18:25.663Z,101242.56
2022-10-11T05:21:05.028Z,101238.44
2022-10-11T05:23:33.852Z,101241.22
2022-10-11T05:26:00.897Z,101244.94
2022-10-11T05:28:28.490Z,101249.63
2022-10-11T05:30:55.535Z,101246.34
2022-10-11T05:33:22.569Z,101257.16
2022-10-11T05:35:49.304Z,101269.34
2022-10-11T05:38:16.436Z,101286.28
2022-10-11T05:40:43.336Z,101284.16
2022-10-11T05:43:10.152Z,101290.34
2022-10-11T05:45:42.230Z,101300.19
2022-10-11T05:48:09.846Z,101300.13
2022-10-11T05:50:37.541Z,101310.19
2022-10-11T05:53:05.268Z,101312.66
2022-10-11T05:55:42.956Z,101310.03
2022-10-11T05:58:14.912Z,101311.56
2022-10-11T06:00:41.759Z,101307.88
2022-10-11T06:03:08.910Z,101313.63
2022-10-11T06:05:35.918Z,101319.47
2022-10-11T06:08:03.796Z,101327.09
2022-10-11T06:10:30.501Z,101316.66
2022-10-11T06:12:57.220Z,101320.81
2022-10-11T06:15:24.192Z,101316.69
2022-10-11T06:17:51.281Z,101322.38
2022-10-11T06:20:18.069Z,101318.47
2022-10-11T06:22:44.883Z,101310.28
2022-10-11T06:25:12.256Z,101318.78
2022-10-11T06:27:39.114Z,101307.66
2022-10-11T06:30:07.391Z,101309.06
2022-10-11T06:32:34.142Z,101305.03
2022-10-11T06:35:00.806Z,101323.25
2022-10-11T06:37:27.437Z,101311.56
2022-10-11T06:39:54.057Z,101325.28
2022-10-11T06:42:20.804Z,101325.53
2022-10-11T06:44:47.419Z,101321.47
2022-10-11T06:47:14.084Z,101314.81
2022-10-11T06:49:40.832Z,101312.94
2022-10-11T06:52:07.586Z,101313.75
2022-10-11T06:54:34.314Z,101321.56
2022-10-11T06:57:00.983Z,101336.56
2022-10-11T06:59:27.717Z,101344.88
2022-10-11T07:01:54.358Z,101349.69
2022-10-11T07:04:21.219Z,101353.84
2022-10-11T07:06:47.933Z,101366.59
2022-10-11T07:09:14.710Z,101376.31
2022-10-11T07:11:41.478Z,101373.34
2022-10-11T07:14:09.275Z,101392.84
2022-10-11T07:16:36.573Z,101387.84
2022-10-11T07:19:06.406Z,101401.25
2022-10-11T07:21:34.883Z,101419.50
2022-10-11T07:24:01.972Z,101425.63
2022-10-11T07:26:33.847Z,101438.66
2022-10-11T07:29:04.409Z,101455.84
2022-10-11T07:31:31.214Z,101469.13
2022-10-11T07:33:57.951Z,101476.22
2022-10-11T07:36:25.871Z,101493.00
2022-10-11T07:38:52.685Z,101508.25
2022-10-11T07:41:19.887Z,101526.88
2022-10-11T07:43:47.965Z,101548.28
2022-10-11T07:46:14.737Z,101552.75
2022-10-11T07:48:41.946Z,101574.97
2022-10-11T07:51:17.720Z,101584.34
2022-10-11T07:53:55.927Z,101583.69
2022-10-11T07:56:25.321Z,101579.81
2022-10-11T07:58:57.774Z,101605.53
2022-10-11T08:01:25.343Z,101617.78
2022-10-11T08:03:53.349Z,101623.38
2022-10-11T08:06:23.166Z,101639.81
2022-10-11T08:08:50.536Z,101658.72
2022-10-11T08:11:26.081Z,101662.25
2022-10-11T08:13:52.991Z,101693.81
2022-10-11T08:16:19.831Z,101701.88
2022-10-11T08:18:46.962Z,101735.94
2022-10-11T08:21:15.739Z,101754.09
2022-10-11T08:23:42.754Z,101768.41
2022-10-11T08:26:10.265Z,101787.00
2022-10-11T08:28:37.503Z,101809.13
2022-10-11T08:31:04.425Z,101831.50
2022-10-11T08:33:31.259Z,101841.16
2022-10-11T08:35:58.920Z,101857.69
2022-10-11T08:38:25.593Z,101872.66
2022-10-11T08:40:55.650Z,101894.88
2022-10-11T08:43:31.491Z,101907.94
2022-10-11T08:46:01.468Z,101926.09
2022-10-11T08:48:42.386Z,101950.69
2022-10-11T08:51:25.241Z,101968.16
2022-10-11T08:53:57.158Z,101980.59
2022-10-11T08:56:26.394Z,102008.84
2022-10-11T08:59:18.168Z,102021.47
2022-10-11T09:01:52.941Z,102043.63
2022-10-11T09:04:20.035Z,102053.75
2022-10-11T09:07:07.399Z,102079.75
2022-10-11T09:10:03.588Z,102106.28
2022-10-11T09:12:45.461Z,102108.22
2022-10-11T09:15:29.055Z,102131.13
2022-10-11T09:18:01.735Z,102153.28
2022-10-11T09:20:36.159Z,102173.56
2022-10-11T09:23:41.257Z,102180.38
2022-10-11T09:26:17.330Z,102202.41
2022-10-11T09:29:10.559Z,102191.81
2022-10-11T09:31:37.470Z,102213.34
2022-10-11T09:34:14.433Z,102219.59
2022-10-11T09:36:49.818Z,102230.13
2022-10-11T09:39:33.029Z,102230.06
2022-10-11T09:42:11.778Z,102243.22
2022-10-11T09:44:45.478Z,102247.44
2022-10-11T09:47:16.538Z,102252.97
2022-10-11T09:49:52.082Z,102259.72
2022-10-11T09:52:21.653Z,102270.06
2022-10-11T09:54:55.373Z,102276.78
2022-10-11T09:57:31.073Z,102283.91
2022-10-11T09:59:59.648Z,102295.25
2022-10-11T10:02:26.939Z,102294.84
2022-10-11T10:04:53.514Z,102306.47
2022-10-11T10:07:20.731Z,102308.72
2022-10-11T10:09:47.639Z,102313.09
2022-10-11T10:12:20.873Z,102320.00
2022-10-11T10:15:05.024Z,102325.09
2022-10-11T10:17:33.032Z,102330.84
2022-10-11T10:20:00.702Z,102329.13
2022-10-11T10:22:34.169Z,102327.28
2022-10-11T10:25:05.975Z,102337.44
2022-10-11T10:27:32.710Z,102339.84
2022-10-11T10:30:13.196Z,102338.09
2022-10-11T10:33:02.710Z,102342.66
2022-10-11T10:35:32.317Z,102356.72
2022-10-11T10:38:14.132Z,102365.50
2022-10-11T10:40:49.540Z,102371.41
2022-10-11T10:43:19.010Z,102375.97
2022-10-11T10:46:04.251Z,102392.56
2022-10-11T10:49:23.569Z,102392.53
2022-10-11T10:51:51.210Z,102412.59
2022-10-11T10:54:44.698Z,102426.94
2022-10-11T10:57:20.340Z,102425.84
2022-10-11T11:00:03.106Z,102422.66
2022-10-11T11:02:48.437Z,102407.97
2022-10-11T11:05:44.399Z,102397.75
2022-10-11T11:08:30.488Z,102388.41
2022-10-11T11:11:28.003Z,102383.44
2022-10-11T11:14:25.473Z,102362.38
2022-10-11T11:17:04.150Z,102350.47
2022-10-11T11:20:01.047Z,102347.75
2022-10-11T11:22:56.019Z,102352.94
2022-10-11T11:25:26.607Z,102351.63
2022-10-11T11:28:15.283Z,102350.97
2022-10-11T11:30:57.585Z,102350.09
2022-10-11T11:33:49.950Z,102350.88
2022-10-11T11:36:27.955Z,102348.13
2022-10-11T11:39:11.209Z,102340.44
2022-10-11T11:41:43.983Z,102320.56
2022-10-11T11:44:30.168Z,102310.66
2022-10-11T11:47:03.217Z,102291.06
2022-10-11T11:52:40.909Z,102279.53
2022-10-11T11:55:35.887Z,102282.81
2022-10-11T11:58:40.991Z,102278.19
2022-10-11T12:01:15.857Z,102276.09
2022-10-11T12:03:53.750Z,102274.06
2022-10-11T12:06:25.245Z,102276.16
2022-10-11T12:09:07.270Z,102268.69
2022-10-11T12:11:36.881Z,102266.22
2022-10-11T12:14:17.166Z,102275.53
2022-10-11T12:17:11.222Z,102285.53
2022-10-11T12:19:41.414Z,102294.69
2022-10-11T12:22:31.365Z,102298.97
2022-10-11T12:25:12.817Z,102297.00
2022-10-11T12:27:47.927Z,102304.41
2022-10-11T12:30:48.437Z,102302.44
2022-10-11T12:33:22.501Z,102316.13
2022-10-11T12:35:55.124Z,102313.88
2022-10-11T12:38:26.601Z,102302.22
2022-10-11T12:41:00.581Z,102319.72
2022-10-11T12:43:30.361Z,102333.03
2022-10-11T12:45:57.178Z,102331.78
2022-10-11T12:48:36.029Z,102344.63
2022-10-11T12:51:23.718Z,102341.16
2022-10-11T12:54:25.591Z,102355.41
2022-10-11T12:57:12.311Z,102365.31
2022-10-11T12:59:44.453Z,102376.44
2022-10-11T13:02:44.479Z,102389.34
2022-10-11T13:05:20.940Z,102396.41
2022-10-11T13:07:48.577Z,102405.88
2022-10-11T13:10:19.224Z,102409.75
2022-10-11T13:12:47.999Z,102414.47
2022-10-11T13:15:21.495Z,102422.81
2022-10-11T13:17:54.237Z,102419.22
2022-10-11T13:20:25.389Z,102419.06
2022-10-11T13:22:55.189Z,102410.91
2022-10-11T13:25:37.678Z,102401.97
2022-10-11T13:28:08.917Z,102400.22
2022-10-11T13:30:37.244Z,102392.81
2022-10-11T13:33:19.049Z,102391.13
2022-10-11T13:35:46.092Z,102391.19
2022-10-11T13:38:32.531Z,102393.41
2022-10-11T13:41:02.716Z,102393.78
2022-10-11T13:43:30.943Z,102393.50
2022-10-11T13:46:00.476Z,102383.75
2022-10-11T13:48:31.635Z,102382.56
2022-10-11T13:51:27.975Z,102387.47
2022-10-11T13:54:01.126Z,102391.28
2022-10-11T13:56:32.220Z,102392.78
2022-10-11T13:59:00.224Z,102400.78
2022-10-11T14:01:36.487Z,102407.09
2022-10-11T14:04:07.523Z,102409.63
2022-10-11T14:06:52.392Z,102408.06
2022-10-11T14:09:26.735Z,102410.22
2022-10-11T14:11:54.472Z,102402.41
2022-10-11T14:14:33.353Z,102404.28
2022-10-11T14:17:12.150Z,102405.84
2022-10-11T14:19:39.970Z,102418.44
2022-10-11T14:22:13.319Z,102425.75
2022-10-11T14:24:40.020Z,102427.31
2022-10-11T14:27:08.358Z,102413.31
2022-10-11T14:29:36.910Z,102402.00
2022-10-11T14:32:08.210Z,102398.31
2022-10-11T14:34:35.540Z,102397.38
2022-10-11T14:37:02.478Z,102392.06
2022-10-11T14:39:31.849Z,102413.66
2022-10-11T14:41:59.329Z,102424.00
2022-10-11T14:44:25.999Z,102419.66
2022-10-11T14:46:54.798Z,102442.78
2022-10-11T14:49:28.034Z,102429.19
2022-10-11T14:51:56.638Z,102433.16
2022-10-11T14:54:25.670Z,102438.69
2022-10-11T14:56:54.179Z,102442.56
2022-10-11T14:59:23.616Z,102469.03
2022-10-11T15:01:52.022Z,102469.88
2022-10-11T15:04:22.379Z,102481.53
2022-10-11T15:06:50.482Z,102479.06
2022-10-11T15:09:20.673Z,102478.34
2022-10-11T15:11:48.418Z,102486.38
2022-10-11T15:14:15.119Z,102493.16
2022-10-11T15:16:42.183Z,102485.66
2022-10-11T15:19:21.572Z,102492.28
2022-10-11T15:21:48.788Z,102492.47
2022-10-11T15:24:15.757Z,102496.00
2022-10-11T15:26:42.531Z,102497.75
2022-10-11T15:29:11.803Z,102502.50
2022-10-11T15:31:39.653Z,102501.09
2022-10-11T15:34:06.842Z,102502.84
2022-10-11T15:36:33.504Z,102503.81
2022-10-11T15:39:01.634Z,102504.25
2022-10-11T15:41:28.574Z,102503.13
2022-10-11T15:43:55.365Z,102504.28
2022-10-11T15:46:22.870Z,102499.38
2022-10-11T15:48:51.428Z,102501.81
2022-10-11T15:51:18.441Z,102503.75
2022-10-11T15:53:45.257Z,102509.72
2022-10-11T15:56:18.698Z,102496.88
2022-10-11T15:58:45.860Z,102507.97
2022-10-11T16:01:20.049Z,102507.28
2022-10-11T16:03:48.955Z,102496.72
2022-10-11T16:06:19.060Z,102504.88
2022-10-11T16:08:46.080Z,102509.72
2022-10-11T16:11:13.456Z,102510.75
2022-10-11T16:13:40.474Z,102509.00
2022-10-11T16:16:09.939Z,102518.16
2022-10-11T16:18:37.453Z,102515.44
2022-10-11T16:21:10.124Z,102519.28
2022-10-11T16:23:37.957Z,102520.66
2022-10-11T16:26:08.276Z,102522.69
2022-10-11T16:28:35.856Z,102528.72
2022-10-11T16:31:10.980Z,102523.22
2022-10-11T16:33:45.849Z,102525.69
2022-10-11T16:36:31.979Z,102508.25
2022-10-11T16:39:00.375Z,102511.44
2022-10-11T16:41:27.197Z,102499.19
2022-10-11T16:43:54.994Z,102495.03
2022-10-11T16:46:22.172Z,102484.59
2022-10-11T16:48:49.151Z,102478.69
2022-10-11T16:51:15.853Z,102472.34
2022-10-11T16:53:42.590Z,102461.22
2022-10-11T16:56:11.395Z,102451.34
2022-10-11T16:58:38.020Z,102446.00
2022-10-11T17:01:10.106Z,102428.88
2022-10-11T17:03:37.230Z,102421.72
2022-10-11T17:06:05.432Z,102420.53
2022-10-11T17:08:32.431Z,102406.28
2022-10-11T17:10:59.206Z,102397.22
2022-10-11T17:13:25.986Z,102390.44
2022-10-11T17:15:52.936Z,102382.91
2022-10-11T17:18:19.901Z,102367.53
2022-10-11T17:20:46.695Z,102361.91
2022-10-11T17:23:13.450Z,102361.81
2022-10-11T17:25:42.798Z,102339.81
2022-10-11T17:28:09.873Z,102336.91
2022-10-11T17:30:36.748Z,102332.44
2022-10-11T17:33:04.215Z,102317.84
2022-10-11T17:35:32.781Z,102318.88
2022-10-11T17:38:05.702Z,102318.03
2022-10-11T17:40:33.138Z,102298.63
2022-10-11T17:43:00.046Z,102287.91
2022-10-11T17:45:27.129Z,102284.75
2022-10-11T17:47:53.985Z,102284.63
2022-10-11T17:50:20.850Z,102275.25
2022-10-11T17:52:47.726Z,102278.16
2022-10-11T17:55:15.026Z,102265.56
2022-10-11T17:57:41.824Z,102260.66
2022-10-11T18:00:09.423Z,102261.25
2022-10-11T18:02:36.132Z,102256.88
2022-10-11T18:05:04.266Z,102242.59
2022-10-11T18:07:31.138Z,102244.78
2022-10-11T18:09:57.948Z,102240.19
2022-10-11T18:12:25.958Z,102232.91
2022-10-11T18:14:52.651Z,102245.38
2022-10-11T18:17:19.404Z,102243.78
2022-10-11T18:19:46.143Z,102247.78
2022-10-11T18:22:13.041Z,102245.63
2022-10-11T18:24:41.491Z,102233.22
2022-10-11T18:27:08.261Z,102235.47
2022-10-11T18:29:35.188Z,102231.09
2022-10-11T18:32:02.313Z,102225.72
2022-10-11T18:34:29.159Z,102210.75
2022-10-11T18:36:55.938Z,102211.56
2022-10-11T18:39:22.741Z,102200.56
2022-10-11T18:41:49.808Z,102192.97
2022-10-11T18:44:16.676Z,102187.84
2022-10-11T18:46:44.510Z,102184.06
2022-10-11T18:49:11.862Z,102179.59
2022-10-11T18:51:40.333Z,102185.03
2022-10-11T18:54:08.964Z,102178.69
2022-10-11T18:56:37.157Z,102167.28
2022-10-11T18:59:05.154Z,102160.81
2022-10-11T19:01:38.341Z,102160.09
2022-10-11T19:04:07.232Z,102143.69
2022-10-11T19:06:37.002Z,102149.03
2022-10-11T19:09:13.089Z,102142.69
2022-10-11T19:11:41.077Z,102135.44
2022-10-11T19:14:11.412Z,102143.09
2022-10-11T19:16:40.888Z,102139.81
2022-10-11T19:19:09.381Z,102126.13
2022-10-11T19:21:36.441Z,102114.53
2022-10-11T19:24:04.559Z,102117.31
2022-10-11T19:26:33.843Z,102116.81
2022-10-11T19:29:04.392Z,102116.34
2022-10-11T19:31:32.613Z,102101.63
2022-10-11T19:33:59.680Z,102094.00
2022-10-11T19:36:28.422Z,102101.44
2022-10-11T19:38:57.292Z,102090.56
2022-10-11T19:41:26.093Z,102088.66
2022-10-11T19:43:53.777Z,102081.00
2022-10-11T19:46:52.920Z,102075.75
2022-10-11T19:49:09.609Z,102057.44
2022-10-11T19:51:37.391Z,102064.69
2022-10-11T19:54:07.457Z,102048.31
2022-10-11T19:56:35.391Z,102055.50
2022-10-11T19:59:02.665Z,102052.84
2022-10-11T20:01:31.228Z,102048.13
2022-10-11T20:04:00.450Z,102041.44
2022-10-11T20:06:28.642Z,102033.72
2022-10-11T20:09:24.055Z,102026.16
2022-10-11T20:11:43.424Z,102022.59
2022-10-11T20:14:10.190Z,102021.69
2022-10-11T20:16:37.030Z,102014.94
2022-10-11T20:19:03.977Z,102012.75
2022-10-11T20:21:31.298Z,102012.66
2022-10-11T20:24:00.694Z,102009.69
2022-10-11T20:26:28.584Z,102012.47
2022-10-11T20:28:56.899Z,102014.41
2022-10-11T20:31:26.990Z,102009.41
2022-10-11T20:34:01.238Z,102011.97
2022-10-11T20:36:33.257Z,102021.09
2022-10-11T20:39:00.677Z,102010.47
2022-10-11T20:41:31.845Z,102019.94
2022-10-11T20:44:01.178Z,102020.91
2022-10-11T20:46:31.616Z,102018.19
2022-10-11T20:49:04.278Z,102024.41
2022-10-11T20:51:33.409Z,102010.03
2022-10-11T20:54:02.225Z,102013.72
2022-10-11T20:56:29.938Z,102016.53
2022-10-11T20:59:01.822Z,102014.59
2022-10-11T21:01:31.953Z,102002.41
2022-10-11T21:04:00.993Z,102001.94
2022-10-11T21:06:29.963Z,102001.88
2022-10-11T21:08:58.979Z,102004.94
2022-10-11T21:11:31.272Z,102005.81
2022-10-11T21:14:00.163Z,102010.75
2022-10-11T21:16:27.878Z,102003.63
2022-10-11T21:18:56.995Z,102006.44
2022-10-11T21:21:24.230Z,102002.03
2022-10-11T21:23:55.310Z,101994.06
2022-10-11T21:26:22.553Z,101990.53
2022-10-11T21:28:49.422Z,101995.81
2022-10-11T21:31:18.113Z,102001.28
2022-10-11T21:33:45.387Z,101982.88
2022-10-11T21:36:17.027Z,101976.69
2022-10-11T21:38:44.127Z,101974.59
2022-10-11T21:41:13.915Z,101966.00
2022-10-11T21:43:41.069Z,101978.47
2022-10-11T21:46:16.351Z,101970.16
2022-10-11T21:48:45.868Z,101960.88
2022-10-11T21:51:26.295Z,101952.28
2022-10-11T21:53:55.047Z,101957.25
2022-10-11T21:56:21.938Z,101955.44
2022-10-11T21:58:49.555Z,101950.16
2022-10-11T22:01:17.621Z,101952.97
2022-10-11T22:03:44.336Z,101949.28
2022-10-11T22:06:11.571Z,101940.09
2022-10-11T22:08:38.638Z,101939.91
2022-10-11T22:11:06.273Z,101926.22
2022-10-11T22:13:33.607Z,101939.00
2022-10-11T22:16:07.897Z,101931.75
2022-10-11T22:18:35.061Z,101924.78
2022-10-11T22:21:16.379Z,101928.47
2022-10-11T22:23:45.245Z,101925.59
2022-10-11T22:26:17.251Z,101913.34
2022-10-11T22:28:46.394Z,101909.84
2022-10-11T22:31:13.497Z,101912.78
2022-10-11T22:33:40.993Z,101908.75
2022-10-11T22:36:09.635Z,101909.66
2022-10-11T22:38:37.739Z,101904.63
2022-10-11T22:41:04.770Z,101906.66
2022-10-11T22:43:31.681Z,101908.56
2022-10-11T22:45:58.481Z,101899.28
2022-10-11T22:48:25.974Z,101889.03
2022-10-11T22:50:52.685Z,101894.97
2022-10-11T22:53:19.657Z,101896.81
2022-10-11T22:55:47.220Z,101891.56
2022-10-11T22:58:14.236Z,101895.13
2022-10-11T23:00:40.965Z,101891.56
2022-10-11T23:03:07.754Z,101884.19
2022-10-11T23:05:35.094Z,101890.69
2022-10-11T23:08:02.183Z,101888.94
2022-10-11T23:10:29.141Z,101876.75
2022-10-11T23:12:55.939Z,101873.19
2022-10-11T23:15:22.663Z,101870.09
2022-10-11T23:17:49.610Z,101868.84
2022-10-11T23:20:16.348Z,101875.00
2022-10-11T23:22:43.006Z,101873.66
2022-10-11T23:25:09.881Z,101865.25
2022-10-11T23:27:36.860Z,101864.19
2022-10-11T23:30:04.530Z,101867.09
2022-10-11T23:32:31.226Z,101864.09
2022-10-11T23:34:58.066Z,101858.06
2022-10-11T23:37:24.871Z,101863.50
2022-10-11T23:39:52.071Z,101861.56
2022-10-11T23:42:18.764Z,101848.41
2022-10-11T23:44:45.787Z,101848.31
2022-10-11T23:47:12.587Z,101853.66
2022-10-11T23:49:39.356Z,101850.16
2022-10-11T23:52:06.125Z,101848.22
2022-10-11T23:54:32.844Z,101852.00
2022-10-11T23:56:59.650Z,101850.78
2022-10-11T23:59:26.648Z,101842.00
